BBC Delaware — V2CN9 — position and weather

sailwx.info

Track history (hours):
 
Tides and Currents Weather Stations Pressure Air Temp Water Temp Dewpoint Dewpoint Depression Visibility Wind Speed Wind Dir Waves Ship Positions

BBC Delaware

Last reported at 2015-Aug-23 18:33 UTC. Time now 2015-Aug-29 21:05 UTC.
Position N 25°56' W 079°33'.

Length 138 m; draft 6.3 m.

Type: Cargo ship. MMSI: 305057000.

Date/timePositionNaut miles runAvg speedWind from/ knotsBaromVisibWave heightAir tempDewpointWater temp
2015-Aug-23 18:33N 25°56' W 079°33'3310.3
2015-Aug-23 15:21N 26°29' W 079°29'  
2015-Aug-20 05:29N 38°06' W 076°14'1112.1
2015-Aug-20 04:33N 38°17' W 076°18'1711.9
2015-Aug-20 03:05N 38°33' W 076°26'611.7
2015-Aug-20 02:32N 38°39' W 076°26'1211.7
2015-Aug-20 01:32N 38°51' W 076°24'1111.5
2015-Aug-20 00:33N 39°02' W 076°23'1010.4
2015-Aug-19 23:33N 39°12' W 076°29'1 1.2
2015-Aug-19 22:31N 39°13' W 076°29'0 0.0
2015-Aug-19 21:31N 39°13' W 076°29'0 0.0
2015-Aug-19 20:31N 39°13' W 076°29'0 0.0
2015-Aug-19 19:31N 39°13' W 076°29'0 0.1
2015-Aug-19 18:28N 39°13' W 076°29'0 0.1
2015-Aug-19 17:28N 39°13' W 076°29'0 0.0
2015-Aug-19 16:16N 39°13' W 076°29'0 0.0
2015-Aug-19 15:19N 39°13' W 076°29'0 0.0
2015-Aug-19 14:28N 39°13' W 076°29'0 0.0
2015-Aug-19 13:28N 39°13' W 076°29'0 0.0
2015-Aug-19 12:28N 39°13' W 076°29'0 0.0
2015-Aug-19 11:31N 39°13' W 076°29'0 0.0
2015-Aug-19 10:31N 39°13' W 076°29'0 0.0
2015-Aug-19 09:31N 39°13' W 076°29'0 0.0
2015-Aug-19 08:28N 39°13' W 076°29'0 0.0
2015-Aug-19 07:31N 39°13' W 076°29'0 0.0
2015-Aug-19 06:31N 39°13' W 076°29'0 0.0
2015-Aug-19 05:31N 39°13' W 076°29'0 0.0
2015-Aug-19 04:31N 39°13' W 076°29'0 0.0
2015-Aug-19 03:31N 39°13' W 076°29'0 0.0
2015-Aug-19 02:31N 39°13' W 076°29'0 0.0
2015-Aug-19 01:28N 39°13' W 076°29'0 0.0
2015-Aug-19 00:31N 39°13' W 076°29'0 0.0
2015-Aug-18 23:29N 39°13' W 076°29'3 3.5
2015-Aug-18 22:33N 39°10' W 076°26'1211.9
2015-Aug-18 21:33N 38°59' W 076°23'1312.8
2015-Aug-18 20:33N 38°46' W 076°25'1312.8
2015-Aug-18 19:31N 38°33' W 076°27'2612.8
2015-Aug-18 17:29N 38°08' W 076°15'1212.8
2015-Aug-18 16:33N 37°57' W 076°11'1212.1
2015-Aug-18 15:33N 37°45' W 076°10'1212.2
2015-Aug-18 14:33N 37°33' W 076°09'1212.1
2015-Aug-18 13:33N 37°20' W 076°09'1211.8
2015-Aug-18 12:33N 37°09' W 076°09'1311.7
2015-Aug-18 11:25N 36°57' W 075°60'10510.1
2015-Aug-18 01:05N 36°48' W 073°49'712.3
2015-Aug-18 00:32N 36°48' W 073°41'1212.1
2015-Aug-17 23:32N 36°48' W 073°26'1411.4
2015-Aug-17 22:18N 36°47' W 073°08'910.8
2015-Aug-17 21:28N 36°47' W 072°57'910.2
2015-Aug-17 20:33N 36°47' W 072°45'12 9.4
2015-Aug-17 19:14N 36°47' W 072°30'6 8.8
2015-Aug-17 18:33N 36°47' W 072°22'8 8.5
2015-Aug-17 17:33N 36°47' W 072°12'8 8.3
2015-Aug-17 16:33N 36°47' W 072°01'8 7.9
2015-Aug-17 15:33N 36°46' W 071°51'8 7.6
2015-Aug-17 14:32N 36°46' W 071°42'8 7.7
2015-Aug-17 13:33N 36°46' W 071°32'12811.2
2015-Aug-17 02:04N 36°44' W 068°52'  
Track history (hours):
 
Tides and Currents Weather Stations Pressure Air Temp Water Temp Dewpoint Dewpoint Depression Visibility Wind Speed Wind Dir Waves Ship Positions

BBC Delaware

Last reported at 2015-Aug-23 18:33 UTC. Time now 2015-Aug-29 21:05 UTC.
Position N 25°56' W 079°33'.

Length 138 m; draft 6.3 m.

Type: Cargo ship. MMSI: 305057000.

Date/timePositionNaut miles runAvg speedWind from/ knotsBaromVisibWave heightAir tempDewpointWater temp
2015-Aug-23 18:33N 25°56' W 079°33'3310.3
2015-Aug-23 15:21N 26°29' W 079°29'  
2015-Aug-20 05:29N 38°06' W 076°14'1112.1
2015-Aug-20 04:33N 38°17' W 076°18'1711.9
2015-Aug-20 03:05N 38°33' W 076°26'611.7
2015-Aug-20 02:32N 38°39' W 076°26'1211.7
2015-Aug-20 01:32N 38°51' W 076°24'1111.5
2015-Aug-20 00:33N 39°02' W 076°23'1010.4
2015-Aug-19 23:33N 39°12' W 076°29'1 1.2
2015-Aug-19 22:31N 39°13' W 076°29'0 0.0
2015-Aug-19 21:31N 39°13' W 076°29'0 0.0
2015-Aug-19 20:31N 39°13' W 076°29'0 0.0
2015-Aug-19 19:31N 39°13' W 076°29'0 0.1
2015-Aug-19 18:28N 39°13' W 076°29'0 0.1
2015-Aug-19 17:28N 39°13' W 076°29'0 0.0
2015-Aug-19 16:16N 39°13' W 076°29'0 0.0
2015-Aug-19 15:19N 39°13' W 076°29'0 0.0
2015-Aug-19 14:28N 39°13' W 076°29'0 0.0
2015-Aug-19 13:28N 39°13' W 076°29'0 0.0
2015-Aug-19 12:28N 39°13' W 076°29'0 0.0
2015-Aug-19 11:31N 39°13' W 076°29'0 0.0
2015-Aug-19 10:31N 39°13' W 076°29'0 0.0
2015-Aug-19 09:31N 39°13' W 076°29'0 0.0
2015-Aug-19 08:28N 39°13' W 076°29'0 0.0
2015-Aug-19 07:31N 39°13' W 076°29'0 0.0
2015-Aug-19 06:31N 39°13' W 076°29'0 0.0
2015-Aug-19 05:31N 39°13' W 076°29'0 0.0
2015-Aug-19 04:31N 39°13' W 076°29'0 0.0
2015-Aug-19 03:31N 39°13' W 076°29'0 0.0
2015-Aug-19 02:31N 39°13' W 076°29'0 0.0
2015-Aug-19 01:28N 39°13' W 076°29'0 0.0
2015-Aug-19 00:31N 39°13' W 076°29'0 0.0
2015-Aug-18 23:29N 39°13' W 076°29'3 3.5
2015-Aug-18 22:33N 39°10' W 076°26'1211.9
2015-Aug-18 21:33N 38°59' W 076°23'1312.8
2015-Aug-18 20:33N 38°46' W 076°25'1312.8
2015-Aug-18 19:31N 38°33' W 076°27'2612.8
2015-Aug-18 17:29N 38°08' W 076°15'1212.8
2015-Aug-18 16:33N 37°57' W 076°11'1212.1
2015-Aug-18 15:33N 37°45' W 076°10'1212.2
2015-Aug-18 14:33N 37°33' W 076°09'1212.1
2015-Aug-18 13:33N 37°20' W 076°09'1211.8
2015-Aug-18 12:33N 37°09' W 076°09'1311.7
2015-Aug-18 11:25N 36°57' W 075°60'10510.1
2015-Aug-18 01:05N 36°48' W 073°49'712.3
2015-Aug-18 00:32N 36°48' W 073°41'1212.1
2015-Aug-17 23:32N 36°48' W 073°26'1411.4
2015-Aug-17 22:18N 36°47' W 073°08'910.8
2015-Aug-17 21:28N 36°47' W 072°57'910.2
2015-Aug-17 20:33N 36°47' W 072°45'12 9.4
2015-Aug-17 19:14N 36°47' W 072°30'6 8.8
2015-Aug-17 18:33N 36°47' W 072°22'8 8.5
2015-Aug-17 17:33N 36°47' W 072°12'8 8.3
2015-Aug-17 16:33N 36°47' W 072°01'8 7.9
2015-Aug-17 15:33N 36°46' W 071°51'8 7.6
2015-Aug-17 14:32N 36°46' W 071°42'8 7.7
2015-Aug-17 13:33N 36°46' W 071°32'12811.2
2015-Aug-17 02:04N 36°44' W 068°52'  

Dump ship's entire track history